Lindseyville, Kentucky
Current Conditions -  °F | °C
As of 9:53 PM on Monday 20 Oct 2014 (Local Time) from KBWG Reporting Station
Broken Clouds Broken Clouds  
Wind Chill: 59°   Ceiling: 9000
Heat Index: 59°   Visibility: 10mi
Dew Point: 50°   Wind: 6mph
Humidity: 72%   Direction: 220°SW
Pressure: 29.99"   Gusts: NA
Location:  37.24°N, 86.29°W
Report Text: KBWG 210253Z AUTO 22005KT 10SM FEW050 BKN090 15/10 A2999 RMK AO2 SLP154 T01500100 53007
Loading
Personal Weather Stations






























Interactive Weather Map
Tropical Storm Tracking
New forecast layout! Learn more

10-Day Weather Forecast

Advertisements
Track Severe Weather on mobile